sensor_id;sensor_type;location;lat;lon;timestamp;P1;durP1;ratioP1;P2;durP2;ratioP2
56363;SDS011;42261;52.094;4.326;2022-09-03T00:01:51;2.30;;;1.27;;
56363;SDS011;42261;52.094;4.326;2022-09-03T00:04:46;3.80;;;1.40;;
56363;SDS011;42261;52.094;4.326;2022-09-03T00:10:49;3.50;;;1.25;;
56363;SDS011;42261;52.094;4.326;2022-09-03T00:13:44;2.92;;;1.10;;
56363;SDS011;42261;52.094;4.326;2022-09-03T00:16:42;1.90;;;1.10;;
56363;SDS011;42261;52.094;4.326;2022-09-03T00:19:32;1.95;;;1.38;;
56363;SDS011;42261;52.094;4.326;2022-09-03T00:22:22;1.95;;;1.23;;
56363;SDS011;42261;52.094;4.326;2022-09-03T00:25:11;1.20;;;0.90;;
56363;SDS011;42261;52.094;4.326;2022-09-03T00:27:58;2.85;;;1.40;;
56363;SDS011;42261;52.094;4.326;2022-09-03T00:30:46;4.03;;;1.20;;
56363;SDS011;42261;52.094;4.326;2022-09-03T00:33:41;2.17;;;1.20;;
56363;SDS011;42261;52.094;4.326;2022-09-03T00:36:31;4.13;;;1.20;;
56363;SDS011;42261;52.094;4.326;2022-09-03T00:39:26;2.55;;;1.20;;
56363;SDS011;42261;52.094;4.326;2022-09-03T00:42:23;2.65;;;1.30;;
56363;SDS011;42261;52.094;4.326;2022-09-03T00:48:22;4.53;;;1.08;;
56363;SDS011;42261;52.094;4.326;2022-09-03T00:54:18;3.10;;;1.23;;
56363;SDS011;42261;52.094;4.326;2022-09-03T01:00:12;2.47;;;1.00;;
56363;SDS011;42261;52.094;4.326;2022-09-03T01:03:05;2.55;;;1.30;;
56363;SDS011;42261;52.094;4.326;2022-09-03T01:12:10;1.83;;;1.05;;
56363;SDS011;42261;52.094;4.326;2022-09-03T01:15:12;2.08;;;1.10;;
56363;SDS011;42261;52.094;4.326;2022-09-03T01:27:35;3.05;;;1.10;;
56363;SDS011;42261;52.094;4.326;2022-09-03T01:30:27;1.52;;;1.10;;
56363;SDS011;42261;52.094;4.326;2022-09-03T01:36:08;2.45;;;1.25;;
56363;SDS011;42261;52.094;4.326;2022-09-03T01:39:06;2.15;;;1.30;;
56363;SDS011;42261;52.094;4.326;2022-09-03T01:42:19;4.28;;;1.40;;
56363;SDS011;42261;52.094;4.326;2022-09-03T01:45:11;2.90;;;1.13;;
56363;SDS011;42261;52.094;4.326;2022-09-03T01:51:31;4.30;;;1.30;;
56363;SDS011;42261;52.094;4.326;2022-09-03T01:54:19;2.97;;;1.15;;
56363;SDS011;42261;52.094;4.326;2022-09-03T02:00:10;3.05;;;1.48;;
56363;SDS011;42261;52.094;4.326;2022-09-03T02:02:59;2.15;;;1.30;;
56363;SDS011;42261;52.094;4.326;2022-09-03T02:05:48;1.90;;;1.50;;
56363;SDS011;42261;52.094;4.326;2022-09-03T02:08:36;1.20;;;1.10;;
56363;SDS011;42261;52.094;4.326;2022-09-03T02:11:20;4.32;;;1.30;;
56363;SDS011;42261;52.094;4.326;2022-09-03T02:14:04;2.35;;;1.20;;
56363;SDS011;42261;52.094;4.326;2022-09-03T02:16:49;2.38;;;1.15;;
56363;SDS011;42261;52.094;4.326;2022-09-03T02:19:34;2.38;;;1.20;;
56363;SDS011;42261;52.094;4.326;2022-09-03T02:22:20;4.63;;;1.40;;
56363;SDS011;42261;52.094;4.326;2022-09-03T02:25:05;2.08;;;1.25;;
56363;SDS011;42261;52.094;4.326;2022-09-03T02:27:50;2.15;;;1.20;;
56363;SDS011;42261;52.094;4.326;2022-09-03T02:30:36;2.85;;;1.25;;
56363;SDS011;42261;52.094;4.326;2022-09-03T02:33:20;4.45;;;1.27;;
56363;SDS011;42261;52.094;4.326;2022-09-03T02:36:06;5.63;;;1.38;;
56363;SDS011;42261;52.094;4.326;2022-09-03T02:38:52;2.20;;;1.27;;
56363;SDS011;42261;52.094;4.326;2022-09-03T02:41:36;3.58;;;1.35;;
56363;SDS011;42261;52.094;4.326;2022-09-03T02:44:29;2.95;;;1.25;;
56363;SDS011;42261;52.094;4.326;2022-09-03T02:47:14;1.92;;;1.20;;
56363;SDS011;42261;52.094;4.326;2022-09-03T02:50:01;3.17;;;1.20;;
56363;SDS011;42261;52.094;4.326;2022-09-03T02:52:46;5.32;;;1.25;;
56363;SDS011;42261;52.094;4.326;2022-09-03T02:55:30;2.58;;;1.10;;
56363;SDS011;42261;52.094;4.326;2022-09-03T02:58:15;2.33;;;1.10;;
56363;SDS011;42261;52.094;4.326;2022-09-03T03:00:59;1.92;;;1.13;;
56363;SDS011;42261;52.094;4.326;2022-09-03T03:03:43;1.77;;;1.35;;
56363;SDS011;42261;52.094;4.326;2022-09-03T03:06:27;4.07;;;1.40;;
56363;SDS011;42261;52.094;4.326;2022-09-03T03:09:13;2.30;;;1.20;;
56363;SDS011;42261;52.094;4.326;2022-09-03T03:11:57;2.20;;;1.25;;
56363;SDS011;42261;52.094;4.326;2022-09-03T03:14:42;2.55;;;1.30;;
56363;SDS011;42261;52.094;4.326;2022-09-03T03:17:26;1.95;;;1.38;;
56363;SDS011;42261;52.094;4.326;2022-09-03T03:20:11;8.15;;;1.40;;
56363;SDS011;42261;52.094;4.326;2022-09-03T03:22:55;2.28;;;1.15;;
56363;SDS011;42261;52.094;4.326;2022-09-03T03:25:40;1.52;;;0.95;;
56363;SDS011;42261;52.094;4.326;2022-09-03T03:28:24;3.58;;;1.45;;
56363;SDS011;42261;52.094;4.326;2022-09-03T03:31:13;2.47;;;1.10;;
56363;SDS011;42261;52.094;4.326;2022-09-03T03:34:02;1.85;;;1.20;;
56363;SDS011;42261;52.094;4.326;2022-09-03T03:36:47;2.05;;;1.20;;
56363;SDS011;42261;52.094;4.326;2022-09-03T03:39:31;2.28;;;1.23;;
56363;SDS011;42261;52.094;4.326;2022-09-03T03:42:15;2.63;;;1.10;;
56363;SDS011;42261;52.094;4.326;2022-09-03T03:44:59;1.40;;;1.00;;
56363;SDS011;42261;52.094;4.326;2022-09-03T03:47:45;3.15;;;1.20;;
56363;SDS011;42261;52.094;4.326;2022-09-03T03:50:29;1.48;;;1.20;;
56363;SDS011;42261;52.094;4.326;2022-09-03T03:53:13;3.08;;;1.10;;
56363;SDS011;42261;52.094;4.326;2022-09-03T03:55:57;3.50;;;1.48;;
56363;SDS011;42261;52.094;4.326;2022-09-03T03:58:43;4.93;;;1.20;;
56363;SDS011;42261;52.094;4.326;2022-09-03T04:01:27;1.80;;;1.27;;
56363;SDS011;42261;52.094;4.326;2022-09-03T04:04:12;3.30;;;1.40;;
56363;SDS011;42261;52.094;4.326;2022-09-03T04:06:57;1.75;;;1.10;;
56363;SDS011;42261;52.094;4.326;2022-09-03T04:09:42;3.30;;;1.30;;
56363;SDS011;42261;52.094;4.326;2022-09-03T04:12:26;2.55;;;1.23;;
56363;SDS011;42261;52.094;4.326;2022-09-03T04:15:10;4.40;;;1.35;;
56363;SDS011;42261;52.094;4.326;2022-09-03T04:17:55;1.33;;;1.13;;
56363;SDS011;42261;52.094;4.326;2022-09-03T04:20:40;1.55;;;1.20;;
56363;SDS011;42261;52.094;4.326;2022-09-03T04:23:25;2.35;;;1.20;;
56363;SDS011;42261;52.094;4.326;2022-09-03T04:26:13;3.60;;;1.30;;
56363;SDS011;42261;52.094;4.326;2022-09-03T04:28:59;3.08;;;1.15;;
56363;SDS011;42261;52.094;4.326;2022-09-03T04:31:44;2.90;;;1.40;;
56363;SDS011;42261;52.094;4.326;2022-09-03T04:34:48;2.47;;;1.20;;
56363;SDS011;42261;52.094;4.326;2022-09-03T04:37:32;2.10;;;1.30;;
56363;SDS011;42261;52.094;4.326;2022-09-03T04:40:17;2.28;;;1.27;;
56363;SDS011;42261;52.094;4.326;2022-09-03T04:43:01;3.58;;;1.90;;
56363;SDS011;42261;52.094;4.326;2022-09-03T04:45:46;1.88;;;1.10;;
56363;SDS011;42261;52.094;4.326;2022-09-03T04:48:30;1.83;;;1.08;;
56363;SDS011;42261;52.094;4.326;2022-09-03T04:51:17;1.33;;;1.10;;
56363;SDS011;42261;52.094;4.326;2022-09-03T04:54:03;2.25;;;1.20;;
56363;SDS011;42261;52.094;4.326;2022-09-03T04:56:47;3.28;;;1.65;;
56363;SDS011;42261;52.094;4.326;2022-09-03T04:59:32;3.15;;;1.23;;
56363;SDS011;42261;52.094;4.326;2022-09-03T05:02:16;3.13;;;1.88;;
56363;SDS011;42261;52.094;4.326;2022-09-03T05:05:05;2.55;;;1.40;;
56363;SDS011;42261;52.094;4.326;2022-09-03T05:07:49;3.25;;;1.20;;
56363;SDS011;42261;52.094;4.326;2022-09-03T05:10:33;2.03;;;1.52;;
56363;SDS011;42261;52.094;4.326;2022-09-03T05:13:17;3.13;;;1.13;;
56363;SDS011;42261;52.094;4.326;2022-09-03T05:16:04;4.97;;;1.38;;
56363;SDS011;42261;52.094;4.326;2022-09-03T05:18:52;2.47;;;1.27;;
56363;SDS011;42261;52.094;4.326;2022-09-03T05:21:37;4.00;;;1.30;;
56363;SDS011;42261;52.094;4.326;2022-09-03T05:24:21;2.47;;;1.60;;
56363;SDS011;42261;52.094;4.326;2022-09-03T05:27:05;2.63;;;1.50;;
56363;SDS011;42261;52.094;4.326;2022-09-03T05:29:49;1.98;;;1.30;;
56363;SDS011;42261;52.094;4.326;2022-09-03T05:32:34;3.17;;;1.35;;
56363;SDS011;42261;52.094;4.326;2022-09-03T05:35:19;3.67;;;1.50;;
56363;SDS011;42261;52.094;4.326;2022-09-03T05:38:04;2.05;;;1.30;;
56363;SDS011;42261;52.094;4.326;2022-09-03T05:40:50;5.72;;;1.20;;
56363;SDS011;42261;52.094;4.326;2022-09-03T05:43:34;2.88;;;1.30;;
56363;SDS011;42261;52.094;4.326;2022-09-03T05:46:19;2.22;;;1.45;;
56363;SDS011;42261;52.094;4.326;2022-09-03T05:49:04;2.50;;;1.55;;
56363;SDS011;42261;52.094;4.326;2022-09-03T05:51:49;2.05;;;1.40;;
56363;SDS011;42261;52.094;4.326;2022-09-03T05:54:33;2.90;;;1.48;;
56363;SDS011;42261;52.094;4.326;2022-09-03T05:57:17;2.17;;;1.40;;
56363;SDS011;42261;52.094;4.326;2022-09-03T06:00:02;3.50;;;1.60;;
56363;SDS011;42261;52.094;4.326;2022-09-03T06:02:50;2.20;;;1.40;;
56363;SDS011;42261;52.094;4.326;2022-09-03T06:08:19;3.08;;;1.52;;
56363;SDS011;42261;52.094;4.326;2022-09-03T06:11:06;3.95;;;1.33;;
56363;SDS011;42261;52.094;4.326;2022-09-03T06:13:51;1.60;;;1.20;;
56363;SDS011;42261;52.094;4.326;2022-09-03T06:16:37;4.78;;;1.80;;
56363;SDS011;42261;52.094;4.326;2022-09-03T06:19:24;2.70;;;1.30;;
56363;SDS011;42261;52.094;4.326;2022-09-03T06:22:09;4.15;;;1.90;;
56363;SDS011;42261;52.094;4.326;2022-09-03T06:24:53;3.47;;;1.50;;
56363;SDS011;42261;52.094;4.326;2022-09-03T06:27:37;2.20;;;1.35;;
56363;SDS011;42261;52.094;4.326;2022-09-03T06:30:21;2.17;;;1.35;;
56363;SDS011;42261;52.094;4.326;2022-09-03T06:33:06;2.45;;;1.20;;
56363;SDS011;42261;52.094;4.326;2022-09-03T06:35:58;3.63;;;1.98;;
56363;SDS011;42261;52.094;4.326;2022-09-03T06:38:44;3.75;;;1.52;;
56363;SDS011;42261;52.094;4.326;2022-09-03T06:41:30;1.92;;;1.40;;
56363;SDS011;42261;52.094;4.326;2022-09-03T06:44:16;4.03;;;1.83;;
56363;SDS011;42261;52.094;4.326;2022-09-03T06:47:01;3.10;;;1.60;;
56363;SDS011;42261;52.094;4.326;2022-09-03T06:49:46;2.58;;;1.50;;
56363;SDS011;42261;52.094;4.326;2022-09-03T06:52:31;3.78;;;1.50;;
56363;SDS011;42261;52.094;4.326;2022-09-03T06:55:15;1.70;;;1.60;;
56363;SDS011;42261;52.094;4.326;2022-09-03T06:58:00;4.65;;;1.60;;
56363;SDS011;42261;52.094;4.326;2022-09-03T07:00:44;5.00;;;1.80;;
56363;SDS011;42261;52.094;4.326;2022-09-03T07:03:28;2.28;;;1.65;;
56363;SDS011;42261;52.094;4.326;2022-09-03T07:06:17;2.90;;;1.80;;
56363;SDS011;42261;52.094;4.326;2022-09-03T07:09:02;7.70;;;1.83;;
56363;SDS011;42261;52.094;4.326;2022-09-03T07:11:47;3.42;;;1.50;;
56363;SDS011;42261;52.094;4.326;2022-09-03T07:14:31;4.47;;;1.55;;
56363;SDS011;42261;52.094;4.326;2022-09-03T07:17:16;3.47;;;1.50;;
56363;SDS011;42261;52.094;4.326;2022-09-03T07:20:01;2.33;;;1.67;;
56363;SDS011;42261;52.094;4.326;2022-09-03T07:22:46;5.40;;;1.85;;
56363;SDS011;42261;52.094;4.326;2022-09-03T07:25:30;2.90;;;1.70;;
56363;SDS011;42261;52.094;4.326;2022-09-03T07:28:14;3.00;;;1.52;;
56363;SDS011;42261;52.094;4.326;2022-09-03T07:31:07;2.95;;;1.77;;
56363;SDS011;42261;52.094;4.326;2022-09-03T07:33:55;3.13;;;1.50;;
56363;SDS011;42261;52.094;4.326;2022-09-03T07:39:25;2.80;;;1.48;;
56363;SDS011;42261;52.094;4.326;2022-09-03T07:42:09;3.17;;;1.60;;
56363;SDS011;42261;52.094;4.326;2022-09-03T07:44:55;3.45;;;1.73;;
56363;SDS011;42261;52.094;4.326;2022-09-03T07:47:47;4.68;;;1.75;;
56363;SDS011;42261;52.094;4.326;2022-09-03T07:50:34;2.38;;;1.30;;
56363;SDS011;42261;52.094;4.326;2022-09-03T07:56:06;3.58;;;1.50;;
56363;SDS011;42261;52.094;4.326;2022-09-03T07:58:52;5.10;;;2.15;;
56363;SDS011;42261;52.094;4.326;2022-09-03T08:01:39;3.08;;;1.83;;
56363;SDS011;42261;52.094;4.326;2022-09-03T08:04:24;6.20;;;1.90;;
56363;SDS011;42261;52.094;4.326;2022-09-03T08:07:08;1.95;;;1.35;;
56363;SDS011;42261;52.094;4.326;2022-09-03T08:09:52;2.75;;;1.58;;
56363;SDS011;42261;52.094;4.326;2022-09-03T08:12:37;6.03;;;1.88;;
56363;SDS011;42261;52.094;4.326;2022-09-03T08:15:21;3.58;;;1.73;;
56363;SDS011;42261;52.094;4.326;2022-09-03T08:18:06;4.22;;;1.67;;
56363;SDS011;42261;52.094;4.326;2022-09-03T08:20:51;2.85;;;1.50;;
56363;SDS011;42261;52.094;4.326;2022-09-03T08:23:37;4.13;;;1.70;;
56363;SDS011;42261;52.094;4.326;2022-09-03T08:26:25;2.15;;;1.30;;
56363;SDS011;42261;52.094;4.326;2022-09-03T08:29:09;3.20;;;1.52;;
56363;SDS011;42261;52.094;4.326;2022-09-03T08:31:53;6.75;;;1.70;;
56363;SDS011;42261;52.094;4.326;2022-09-03T08:34:38;5.00;;;1.50;;
56363;SDS011;42261;52.094;4.326;2022-09-03T08:37:24;3.17;;;1.63;;
56363;SDS011;42261;52.094;4.326;2022-09-03T08:40:11;1.85;;;1.50;;
56363;SDS011;42261;52.094;4.326;2022-09-03T08:45:52;3.05;;;2.10;;
56363;SDS011;42261;52.094;4.326;2022-09-03T08:48:38;2.97;;;1.60;;
56363;SDS011;42261;52.094;4.326;2022-09-03T08:51:24;3.60;;;1.48;;
56363;SDS011;42261;52.094;4.326;2022-09-03T08:54:13;3.10;;;1.55;;
56363;SDS011;42261;52.094;4.326;2022-09-03T08:57:00;7.40;;;1.65;;
56363;SDS011;42261;52.094;4.326;2022-09-03T08:59:50;2.15;;;1.65;;
56363;SDS011;42261;52.094;4.326;2022-09-03T09:05:52;5.20;;;1.65;;
56363;SDS011;42261;52.094;4.326;2022-09-03T09:08:47;4.07;;;2.03;;
56363;SDS011;42261;52.094;4.326;2022-09-03T09:14:39;4.57;;;1.73;;
56363;SDS011;42261;52.094;4.326;2022-09-03T09:20:48;2.88;;;1.50;;
56363;SDS011;42261;52.094;4.326;2022-09-03T09:23:39;4.80;;;1.58;;
56363;SDS011;42261;52.094;4.326;2022-09-03T09:26:27;5.15;;;2.03;;
56363;SDS011;42261;52.094;4.326;2022-09-03T09:29:12;3.67;;;2.33;;
56363;SDS011;42261;52.094;4.326;2022-09-03T09:31:57;3.25;;;1.30;;
56363;SDS011;42261;52.094;4.326;2022-09-03T09:34:43;3.00;;;1.40;;
56363;SDS011;42261;52.094;4.326;2022-09-03T09:37:27;4.18;;;1.40;;
56363;SDS011;42261;52.094;4.326;2022-09-03T09:40:20;4.22;;;1.67;;
56363;SDS011;42261;52.094;4.326;2022-09-03T09:45:53;5.20;;;1.35;;
56363;SDS011;42261;52.094;4.326;2022-09-03T09:48:40;2.22;;;1.33;;
56363;SDS011;42261;52.094;4.326;2022-09-03T09:51:31;6.40;;;1.50;;
56363;SDS011;42261;52.094;4.326;2022-09-03T09:54:16;2.63;;;1.58;;
56363;SDS011;42261;52.094;4.326;2022-09-03T09:57:04;4.38;;;1.52;;
56363;SDS011;42261;52.094;4.326;2022-09-03T10:00:00;3.38;;;1.88;;
56363;SDS011;42261;52.094;4.326;2022-09-03T10:03:06;5.20;;;1.42;;
56363;SDS011;42261;52.094;4.326;2022-09-03T10:06:01;2.05;;;1.50;;
56363;SDS011;42261;52.094;4.326;2022-09-03T10:09:13;5.63;;;1.23;;
56363;SDS011;42261;52.094;4.326;2022-09-03T10:12:08;5.10;;;1.30;;
56363;SDS011;42261;52.094;4.326;2022-09-03T10:15:09;2.15;;;1.17;;
56363;SDS011;42261;52.094;4.326;2022-09-03T10:24:26;2.35;;;1.30;;
56363;SDS011;42261;52.094;4.326;2022-09-03T10:27:15;3.17;;;1.30;;
56363;SDS011;42261;52.094;4.326;2022-09-03T10:30:01;1.98;;;1.00;;
56363;SDS011;42261;52.094;4.326;2022-09-03T10:33:07;2.65;;;1.30;;
56363;SDS011;42261;52.094;4.326;2022-09-03T10:36:44;3.45;;;1.20;;
56363;SDS011;42261;52.094;4.326;2022-09-03T10:45:22;2.10;;;1.25;;
56363;SDS011;42261;52.094;4.326;2022-09-03T10:48:19;4.75;;;1.33;;
56363;SDS011;42261;52.094;4.326;2022-09-03T10:51:26;2.80;;;1.35;;
56363;SDS011;42261;52.094;4.326;2022-09-03T10:57:31;3.05;;;1.17;;
56363;SDS011;42261;52.094;4.326;2022-09-03T11:00:21;2.13;;;1.17;;
56363;SDS011;42261;52.094;4.326;2022-09-03T11:03:10;2.35;;;1.38;;
56363;SDS011;42261;52.094;4.326;2022-09-03T11:09:25;2.70;;;1.65;;
56363;SDS011;42261;52.094;4.326;2022-09-03T11:12:16;3.85;;;1.40;;
56363;SDS011;42261;52.094;4.326;2022-09-03T11:15:08;1.50;;;1.08;;
56363;SDS011;42261;52.094;4.326;2022-09-03T11:18:05;1.38;;;0.93;;
56363;SDS011;42261;52.094;4.326;2022-09-03T11:20:56;2.85;;;0.75;;
56363;SDS011;42261;52.094;4.326;2022-09-03T11:23:45;3.08;;;0.95;;
56363;SDS011;42261;52.094;4.326;2022-09-03T11:26:31;6.70;;;1.30;;
56363;SDS011;42261;52.094;4.326;2022-09-03T11:32:24;1.95;;;1.35;;
56363;SDS011;42261;52.094;4.326;2022-09-03T11:41:12;2.25;;;1.00;;
56363;SDS011;42261;52.094;4.326;2022-09-03T11:43:57;3.17;;;1.30;;
56363;SDS011;42261;52.094;4.326;2022-09-03T11:46:51;3.58;;;1.10;;
56363;SDS011;42261;52.094;4.326;2022-09-03T11:49:43;5.70;;;1.30;;
56363;SDS011;42261;52.094;4.326;2022-09-03T11:52:30;2.35;;;1.33;;
56363;SDS011;42261;52.094;4.326;2022-09-03T11:55:25;4.05;;;1.20;;
56363;SDS011;42261;52.094;4.326;2022-09-03T11:58:19;4.10;;;1.50;;
56363;SDS011;42261;52.094;4.326;2022-09-03T12:01:09;2.92;;;1.20;;
56363;SDS011;42261;52.094;4.326;2022-09-03T12:04:04;6.32;;;1.65;;
56363;SDS011;42261;52.094;4.326;2022-09-03T12:22:14;3.08;;;1.20;;
56363;SDS011;42261;52.094;4.326;2022-09-03T12:25:07;5.95;;;1.40;;
56363;SDS011;42261;52.094;4.326;2022-09-03T12:27:54;4.03;;;1.40;;
56363;SDS011;42261;52.094;4.326;2022-09-03T12:30:38;3.05;;;1.77;;
56363;SDS011;42261;52.094;4.326;2022-09-03T12:33:23;3.63;;;1.65;;
56363;SDS011;42261;52.094;4.326;2022-09-03T12:36:08;2.85;;;1.25;;
56363;SDS011;42261;52.094;4.326;2022-09-03T12:38:53;2.13;;;1.58;;
56363;SDS011;42261;52.094;4.326;2022-09-03T12:41:37;2.03;;;1.20;;
56363;SDS011;42261;52.094;4.326;2022-09-03T12:47:13;6.43;;;1.50;;
56363;SDS011;42261;52.094;4.326;2022-09-03T12:50:04;4.82;;;1.67;;
56363;SDS011;42261;52.094;4.326;2022-09-03T12:52:54;5.53;;;1.55;;
56363;SDS011;42261;52.094;4.326;2022-09-03T12:55:42;3.38;;;1.80;;
56363;SDS011;42261;52.094;4.326;2022-09-03T13:01:20;3.63;;;1.65;;
56363;SDS011;42261;52.094;4.326;2022-09-03T13:04:08;4.13;;;1.77;;
56363;SDS011;42261;52.094;4.326;2022-09-03T13:07:05;3.92;;;1.60;;
56363;SDS011;42261;52.094;4.326;2022-09-03T13:09:57;2.92;;;1.40;;
56363;SDS011;42261;52.094;4.326;2022-09-03T13:12:46;3.53;;;1.40;;
56363;SDS011;42261;52.094;4.326;2022-09-03T13:15:31;3.53;;;1.30;;
56363;SDS011;42261;52.094;4.326;2022-09-03T13:18:18;5.07;;;1.40;;
56363;SDS011;42261;52.094;4.326;2022-09-03T13:21:17;1.73;;;1.30;;
56363;SDS011;42261;52.094;4.326;2022-09-03T13:27:02;5.45;;;1.88;;
56363;SDS011;42261;52.094;4.326;2022-09-03T13:33:34;2.42;;;1.48;;
56363;SDS011;42261;52.094;4.326;2022-09-03T13:36:25;2.20;;;1.27;;
56363;SDS011;42261;52.094;4.326;2022-09-03T13:39:25;3.67;;;1.77;;
56363;SDS011;42261;52.094;4.326;2022-09-03T13:51:38;3.92;;;1.10;;
56363;SDS011;42261;52.094;4.326;2022-09-03T13:54:28;3.20;;;1.67;;
56363;SDS011;42261;52.094;4.326;2022-09-03T14:00:33;5.60;;;2.17;;
56363;SDS011;42261;52.094;4.326;2022-09-03T14:09:42;3.00;;;1.48;;
56363;SDS011;42261;52.094;4.326;2022-09-03T14:19:02;5.60;;;1.98;;
56363;SDS011;42261;52.094;4.326;2022-09-03T14:21:51;3.03;;;1.70;;
56363;SDS011;42261;52.094;4.326;2022-09-03T14:24:49;3.47;;;1.90;;
56363;SDS011;42261;52.094;4.326;2022-09-03T14:27:35;2.50;;;1.40;;
56363;SDS011;42261;52.094;4.326;2022-09-03T14:33:23;3.22;;;1.50;;
56363;SDS011;42261;52.094;4.326;2022-09-03T14:36:33;2.30;;;1.67;;
56363;SDS011;42261;52.094;4.326;2022-09-03T14:55:09;3.80;;;1.48;;
56363;SDS011;42261;52.094;4.326;2022-09-03T15:10:37;2.55;;;1.50;;
56363;SDS011;42261;52.094;4.326;2022-09-03T15:13:45;3.47;;;1.52;;
56363;SDS011;42261;52.094;4.326;2022-09-03T15:16:40;4.07;;;1.60;;
56363;SDS011;42261;52.094;4.326;2022-09-03T15:25:43;1.67;;;1.30;;
56363;SDS011;42261;52.094;4.326;2022-09-03T15:34:38;12.90;;;1.88;;
56363;SDS011;42261;52.094;4.326;2022-09-03T15:37:36;3.45;;;1.48;;
56363;SDS011;42261;52.094;4.326;2022-09-03T15:40:34;5.18;;;1.45;;
56363;SDS011;42261;52.094;4.326;2022-09-03T15:43:40;2.75;;;1.30;;
56363;SDS011;42261;52.094;4.326;2022-09-03T15:52:28;1.77;;;1.20;;
56363;SDS011;42261;52.094;4.326;2022-09-03T15:55:34;3.67;;;1.25;;
56363;SDS011;42261;52.094;4.326;2022-09-03T15:58:23;5.25;;;1.30;;
56363;SDS011;42261;52.094;4.326;2022-09-03T16:01:24;2.38;;;1.35;;
56363;SDS011;42261;52.094;4.326;2022-09-03T16:07:09;3.17;;;1.50;;
56363;SDS011;42261;52.094;4.326;2022-09-03T16:12:56;4.20;;;1.48;;
56363;SDS011;42261;52.094;4.326;2022-09-03T16:15:45;2.25;;;1.10;;
56363;SDS011;42261;52.094;4.326;2022-09-03T16:18:36;3.08;;;1.30;;
56363;SDS011;42261;52.094;4.326;2022-09-03T16:21:31;4.65;;;1.00;;
56363;SDS011;42261;52.094;4.326;2022-09-03T16:24:25;3.65;;;1.20;;
56363;SDS011;42261;52.094;4.326;2022-09-03T17:04:03;3.58;;;0.90;;
56363;SDS011;42261;52.094;4.326;2022-09-03T17:26:10;1.85;;;1.27;;
56363;SDS011;42261;52.094;4.326;2022-09-03T17:42:15;2.10;;;1.33;;
56363;SDS011;42261;52.094;4.326;2022-09-03T17:50:47;2.38;;;1.27;;
56363;SDS011;42261;52.094;4.326;2022-09-03T17:53:43;1.77;;;1.50;;
56363;SDS011;42261;52.094;4.326;2022-09-03T18:02:39;4.82;;;1.65;;
56363;SDS011;42261;52.094;4.326;2022-09-03T18:08:42;1.88;;;1.50;;
56363;SDS011;42261;52.094;4.326;2022-09-03T18:12:12;2.15;;;1.45;;
56363;SDS011;42261;52.094;4.326;2022-09-03T18:15:08;3.85;;;1.40;;
56363;SDS011;42261;52.094;4.326;2022-09-03T18:18:23;3.15;;;1.50;;
56363;SDS011;42261;52.094;4.326;2022-09-03T18:21:11;3.55;;;1.60;;
56363;SDS011;42261;52.094;4.326;2022-09-03T18:24:48;3.10;;;1.38;;
56363;SDS011;42261;52.094;4.326;2022-09-03T18:27:55;2.13;;;1.30;;
56363;SDS011;42261;52.094;4.326;2022-09-03T18:31:02;2.95;;;1.63;;
56363;SDS011;42261;52.094;4.326;2022-09-03T18:34:11;1.92;;;1.33;;
56363;SDS011;42261;52.094;4.326;2022-09-03T18:37:18;4.50;;;1.65;;
56363;SDS011;42261;52.094;4.326;2022-09-03T18:40:27;5.97;;;2.67;;
56363;SDS011;42261;52.094;4.326;2022-09-03T18:47:29;2.35;;;1.63;;
56363;SDS011;42261;52.094;4.326;2022-09-03T18:50:45;3.10;;;1.92;;
56363;SDS011;42261;52.094;4.326;2022-09-03T18:57:31;3.88;;;1.63;;
56363;SDS011;42261;52.094;4.326;2022-09-03T19:00:44;3.05;;;1.77;;
56363;SDS011;42261;52.094;4.326;2022-09-03T19:13:44;2.92;;;1.80;;
56363;SDS011;42261;52.094;4.326;2022-09-03T19:23:32;3.22;;;1.80;;
56363;SDS011;42261;52.094;4.326;2022-09-03T19:42:36;4.15;;;1.75;;
56363;SDS011;42261;52.094;4.326;2022-09-03T19:55:48;5.55;;;1.67;;
56363;SDS011;42261;52.094;4.326;2022-09-03T19:58:56;2.85;;;1.92;;
56363;SDS011;42261;52.094;4.326;2022-09-03T20:02:01;2.33;;;1.50;;
56363;SDS011;42261;52.094;4.326;2022-09-03T20:05:05;5.15;;;1.73;;
56363;SDS011;42261;52.094;4.326;2022-09-03T20:08:10;3.63;;;1.90;;
56363;SDS011;42261;52.094;4.326;2022-09-03T20:11:19;4.10;;;1.92;;
56363;SDS011;42261;52.094;4.326;2022-09-03T20:14:07;3.40;;;1.77;;
56363;SDS011;42261;52.094;4.326;2022-09-03T20:25:55;2.42;;;1.73;;
56363;SDS011;42261;52.094;4.326;2022-09-03T20:32:02;3.58;;;1.80;;
56363;SDS011;42261;52.094;4.326;2022-09-03T20:34:59;2.92;;;2.00;;
56363;SDS011;42261;52.094;4.326;2022-09-03T21:11:47;2.83;;;1.98;;
56363;SDS011;42261;52.094;4.326;2022-09-03T21:14:39;4.97;;;2.10;;
56363;SDS011;42261;52.094;4.326;2022-09-03T21:17:44;3.75;;;2.30;;
56363;SDS011;42261;52.094;4.326;2022-09-03T21:20:56;4.45;;;2.45;;
56363;SDS011;42261;52.094;4.326;2022-09-03T21:24:01;7.40;;;3.83;;
56363;SDS011;42261;52.094;4.326;2022-09-03T21:26:52;5.10;;;2.97;;
56363;SDS011;42261;52.094;4.326;2022-09-03T21:29:41;4.57;;;2.55;;
56363;SDS011;42261;52.094;4.326;2022-09-03T21:32:49;4.35;;;2.42;;
56363;SDS011;42261;52.094;4.326;2022-09-03T21:35:49;6.30;;;1.95;;
56363;SDS011;42261;52.094;4.326;2022-09-03T21:38:37;6.32;;;2.13;;
56363;SDS011;42261;52.094;4.326;2022-09-03T21:44:20;3.53;;;2.30;;
56363;SDS011;42261;52.094;4.326;2022-09-03T21:47:14;5.43;;;2.15;;
56363;SDS011;42261;52.094;4.326;2022-09-03T21:53:04;2.92;;;2.03;;
56363;SDS011;42261;52.094;4.326;2022-09-03T21:59:15;3.70;;;2.13;;
56363;SDS011;42261;52.094;4.326;2022-09-03T22:02:16;4.43;;;2.53;;
56363;SDS011;42261;52.094;4.326;2022-09-03T22:05:08;3.58;;;2.58;;
56363;SDS011;42261;52.094;4.326;2022-09-03T22:13:39;5.75;;;2.63;;
56363;SDS011;42261;52.094;4.326;2022-09-03T22:16:50;4.97;;;2.40;;
56363;SDS011;42261;52.094;4.326;2022-09-03T22:19:37;3.08;;;2.22;;
56363;SDS011;42261;52.094;4.326;2022-09-03T22:25:09;3.00;;;2.30;;
56363;SDS011;42261;52.094;4.326;2022-09-03T22:31:30;3.83;;;2.20;;
56363;SDS011;42261;52.094;4.326;2022-09-03T22:34:24;4.72;;;2.60;;
56363;SDS011;42261;52.094;4.326;2022-09-03T22:37:12;3.95;;;2.63;;
56363;SDS011;42261;52.094;4.326;2022-09-03T22:40:22;3.72;;;2.35;;
56363;SDS011;42261;52.094;4.326;2022-09-03T22:46:16;2.95;;;2.40;;
56363;SDS011;42261;52.094;4.326;2022-09-03T22:52:23;3.08;;;2.70;;
56363;SDS011;42261;52.094;4.326;2022-09-03T22:55:19;5.88;;;3.00;;
56363;SDS011;42261;52.094;4.326;2022-09-03T22:58:07;4.95;;;3.15;;
56363;SDS011;42261;52.094;4.326;2022-09-03T23:01:03;3.95;;;3.40;;
56363;SDS011;42261;52.094;4.326;2022-09-03T23:04:11;3.28;;;2.80;;
56363;SDS011;42261;52.094;4.326;2022-09-03T23:09:54;3.85;;;2.70;;
56363;SDS011;42261;52.094;4.326;2022-09-03T23:16:46;2.95;;;2.40;;
56363;SDS011;42261;52.094;4.326;2022-09-03T23:25:15;4.88;;;3.10;;
56363;SDS011;42261;52.094;4.326;2022-09-03T23:28:07;4.53;;;3.00;;
56363;SDS011;42261;52.094;4.326;2022-09-03T23:30:55;5.25;;;3.08;;
56363;SDS011;42261;52.094;4.326;2022-09-03T23:33:46;4.13;;;2.88;;
56363;SDS011;42261;52.094;4.326;2022-09-03T23:36:37;3.88;;;2.90;;
56363;SDS011;42261;52.094;4.326;2022-09-03T23:49:07;5.32;;;3.67;;
56363;SDS011;42261;52.094;4.326;2022-09-03T23:52:20;7.45;;;3.50;;
56363;SDS011;42261;52.094;4.326;2022-09-03T23:56:14;4.10;;;3.00;;
